Time;durP1;ratioP1;P1;durP2;ratioP2;P2;SDS_P1;SDS_P2;PMS_P1;PMS_P2;Temp;Humidity;BMP_temperature;BMP_pressure;BME280_temperature;BME280_humidity;BME280_pressure;Samples;Min_cycle;Max_cycle;Signal;HPM_P1;HPM_P2
2023/06/01 00:00:00;;;;;;;13.27;4.07;;;;;;;-143.84;56.59;45094.78;4992948;28;20449;-53
2023/06/01 00:02:29;;;;;;;6.90;3.50;;;;;;;-143.84;56.32;45073.81;4992552;28;21000;-53
2023/06/01 00:04:56;;;;;;;5.53;3.97;;;;;;;-143.84;55.57;45060.50;4992688;28;20485;-53
2023/06/01 00:07:23;;;;;;;8.83;3.70;;;;;;;-143.84;55.02;45083.34;4992513;28;20443;-53
2023/06/01 00:09:50;;;;;;;6.00;4.47;;;;;;;-143.84;54.21;45058.59;4992531;28;20443;-53
2023/06/01 00:12:17;;;;;;;6.63;3.50;;;;;;;-143.84;53.72;45043.34;4992378;28;21008;-53
2023/06/01 00:14:45;;;;;;;8.60;4.10;;;;;;;-143.84;53.44;45073.81;4992867;28;20459;-53
2023/06/01 00:17:12;;;;;;;3.97;3.33;;;;;;;-143.84;53.15;45047.16;4992238;28;20471;-53
2023/06/01 00:19:40;;;;;;;5.23;3.40;;;;;;;-143.84;52.35;45049.06;4991885;28;20574;-53
2023/06/01 00:22:08;;;;;;;3.40;3.10;;;;;;;-143.84;51.94;45066.22;4992372;28;20440;-53
2023/06/01 00:24:35;;;;;;;3.80;3.50;;;;;;;-143.84;51.28;45049.06;4992170;28;20908;-53
2023/06/01 00:27:02;;;;;;;3.90;3.40;;;;;;;-143.84;50.76;45049.06;4992103;28;20479;-53
2023/06/01 00:29:29;;;;;;;3.60;3.33;;;;;;;-143.84;49.80;45089.06;4992243;28;20538;-53
2023/06/01 00:31:57;;;;;;;4.10;3.50;;;;;;;-143.84;49.50;45020.50;4987783;28;20483;-53
2023/06/01 00:34:24;;;;;;;8.50;3.80;;;;;;;-143.84;49.48;45062.41;4972977;28;20441;-53
2023/06/01 00:36:52;;;;;;;6.60;3.10;;;;;;;-143.84;49.25;45054.78;4972548;28;20451;-53
2023/06/01 00:39:19;;;;;;;16.13;2.77;;;;;;;-143.84;49.25;45050.97;4972476;28;20440;-53
2023/06/01 00:41:46;;;;;;;3.30;2.80;;;;;;;-143.84;49.03;45071.91;4972916;28;20437;-53
2023/06/01 00:44:13;;;;;;;14.70;4.23;;;;;;;-143.84;48.74;45039.53;4972585;28;20531;-53
2023/06/01 00:46:41;;;;;;;2.93;2.73;;;;;;;-143.84;48.79;45033.84;4972281;28;20453;-53
2023/06/01 00:49:08;;;;;;;12.97;3.70;;;;;;;-143.84;48.67;45071.91;4972384;28;20435;-53
2023/06/01 00:51:35;;;;;;;5.83;3.20;;;;;;;-143.84;48.49;45045.25;4972462;28;20451;-53
2023/06/01 00:54:04;;;;;;;4.47;3.37;;;;;;;-143.84;48.35;45068.13;4972181;28;20451;-53
2023/06/01 00:56:33;;;;;;;6.10;3.63;;;;;;;-143.84;47.99;45071.91;4972369;28;20951;-53
2023/06/01 00:59:00;;;;;;;7.33;3.57;;;;;;;-143.84;47.56;45030.03;4972306;28;20452;-53
2023/06/01 01:01:28;;;;;;;4.13;3.00;;;;;;;-143.84;47.22;45049.06;4972388;28;20433;-53
2023/06/01 01:03:59;;;;;;;7.33;3.30;;;;;;;-143.84;46.79;45047.16;4972257;28;20455;-54
2023/06/01 01:06:41;;;;;;;5.43;2.97;;;;;;;-143.84;46.99;45037.66;4991296;28;20452;-53
2023/06/01 01:09:20;;;;;;;4.40;3.80;;;;;;;-143.84;46.88;45045.25;4991686;28;20508;-53
2023/06/01 01:11:53;;;;;;;4.80;3.57;;;;;;;-143.84;46.78;45049.06;4991494;28;21075;-53
2023/06/01 01:14:24;;;;;;;5.50;2.80;;;;;;;-143.84;46.41;45050.97;4991433;28;20475;-53
2023/06/01 01:16:59;;;;;;;7.00;3.47;;;;;;;-143.84;46.01;45060.50;4991482;28;20442;-53
2023/06/01 01:19:54;;;;;;;4.10;3.20;;;;;;;-143.84;45.60;45062.41;4991365;28;20444;-53
2023/06/01 01:22:40;;;;;;;3.20;2.90;;;;;;;-143.84;45.12;45043.34;4991087;28;20455;-53
2023/06/01 01:25:22;;;;;;;4.73;2.83;;;;;;;-143.84;44.87;45066.22;4991100;28;20444;-53
2023/06/01 01:28:08;;;;;;;5.63;2.67;;;;;;;-143.84;44.71;45056.69;4991242;28;21458;-53
2023/06/01 01:30:39;;;;;;;3.60;2.97;;;;;;;-143.84;44.33;45066.22;4990847;28;20447;-53
2023/06/01 01:33:07;;;;;;;10.30;3.13;;;;;;;-143.84;44.06;45052.88;4991088;28;20479;-53
2023/06/01 01:35:34;;;;;;;3.73;2.93;;;;;;;-143.84;43.66;45056.69;4991062;28;20450;-53
2023/06/01 01:38:02;;;;;;;4.37;2.90;;;;;;;-143.84;43.79;45085.25;4990958;28;20451;-53
2023/06/01 01:40:29;;;;;;;2.83;2.63;;;;;;;-143.84;43.57;45060.50;4991156;28;20439;-53
2023/06/01 01:42:56;;;;;;;2.90;2.70;;;;;;;-143.84;43.42;45049.06;4991214;28;20480;-53
2023/06/01 01:45:24;;;;;;;4.10;3.03;;;;;;;-143.84;43.40;45056.69;4990815;28;20446;-53
2023/06/01 01:47:59;;;;;;;6.03;3.00;;;;;;;-143.84;43.29;45056.69;4990883;28;20455;-53
2023/06/01 01:50:33;;;;;;;3.73;2.80;;;;;;;-143.84;43.24;45064.31;4990943;28;20472;-53
2023/06/01 01:53:01;;;;;;;6.13;3.10;;;;;;;-143.84;43.37;45083.34;4990737;28;20544;-53
2023/06/01 01:55:31;;;;;;;3.30;3.10;;;;;;;-143.84;43.31;45073.81;4990834;28;20449;-53
2023/06/01 01:58:02;;;;;;;2.97;2.60;;;;;;;-143.84;43.56;45064.31;4990725;28;20446;-53
2023/06/01 02:00:31;;;;;;;5.80;3.40;;;;;;;-143.84;43.37;45039.53;4990574;28;20508;-53
2023/06/01 02:03:00;;;;;;;3.53;3.00;;;;;;;-143.84;43.54;45033.84;4990540;28;20540;-53
2023/06/01 02:05:27;;;;;;;3.93;3.40;;;;;;;-143.84;43.02;45077.63;4990278;28;20500;-53
2023/06/01 02:07:54;;;;;;;4.30;2.83;;;;;;;-143.84;43.05;45060.50;4990684;28;20447;-53
2023/06/01 02:10:21;;;;;;;2.73;2.53;;;;;;;-143.84;42.96;45062.41;4990511;28;20455;-53
2023/06/01 02:12:49;;;;;;;4.63;3.23;;;;;;;-143.84;42.90;45062.41;4990328;28;20576;-53
2023/06/01 02:15:16;;;;;;;2.77;2.53;;;;;;;-143.84;43.04;45056.69;4990380;28;20450;-53
2023/06/01 02:17:43;;;;;;;6.60;3.43;;;;;;;-143.84;42.57;45066.22;4990233;28;20447;-53
2023/06/01 02:20:12;;;;;;;5.43;3.00;;;;;;;-143.84;42.79;45056.69;4990213;28;20443;-53
2023/06/01 02:22:39;;;;;;;5.40;3.57;;;;;;;-143.84;42.61;45056.69;4990277;28;20444;-53
2023/06/01 02:25:07;;;;;;;4.27;2.67;;;;;;;-143.84;42.50;45045.25;4989963;28;20525;-53
2023/06/01 02:27:34;;;;;;;4.60;3.20;;;;;;;-143.84;42.43;45060.50;4990182;28;20831;-53
2023/06/01 02:30:01;;;;;;;10.83;3.53;;;;;;;-143.84;42.17;45071.91;4989875;28;20467;-53
2023/06/01 02:32:30;;;;;;;4.50;2.73;;;;;;;-143.84;42.22;45052.88;4990297;28;20482;-53
2023/06/01 02:34:57;;;;;;;2.80;2.60;;;;;;;-143.84;42.27;45062.41;4990046;28;20478;-53
2023/06/01 02:37:26;;;;;;;3.80;3.33;;;;;;;-143.84;41.89;45049.06;4990103;28;20438;-53
2023/06/01 02:39:53;;;;;;;7.50;2.83;;;;;;;-143.84;41.68;45081.44;4989869;28;20465;-53
2023/06/01 02:42:20;;;;;;;4.97;3.10;;;;;;;-143.84;41.79;45045.25;4989163;28;20463;-52
2023/06/01 02:44:47;;;;;;;6.20;2.77;;;;;;;-143.84;41.34;45049.06;4990235;28;20451;-53
2023/06/01 02:47:14;;;;;;;6.27;2.90;;;;;;;-143.84;40.76;45052.88;4963758;28;20511;-53
2023/06/01 02:49:41;;;;;;;3.20;2.60;;;;;;;-143.84;40.79;45066.22;4951116;29;20496;-53
2023/06/01 02:52:09;;;;;;;5.80;2.80;;;;;;;-143.84;40.57;45062.41;4950979;29;20450;-53
2023/06/01 02:54:37;;;;;;;4.07;3.00;;;;;;;-143.84;40.17;45045.25;4951048;29;20928;-53
2023/06/01 02:57:05;;;;;;;3.17;2.60;;;;;;;-143.84;40.23;45052.88;4950909;29;21244;-53
2023/06/01 02:59:32;;;;;;;9.83;3.30;;;;;;;-143.84;40.25;45054.78;4951132;29;20532;-53
2023/06/01 03:01:59;;;;;;;4.40;2.60;;;;;;;-143.84;40.10;45039.53;4951104;29;20445;-53
2023/06/01 03:04:28;;;;;;;6.03;3.10;;;;;;;-143.84;40.29;45066.22;4955206;28;20491;-53
2023/06/01 03:06:57;;;;;;;3.57;2.27;;;;;;;-143.84;39.63;45052.88;4970048;28;20448;-53
2023/06/01 03:09:24;;;;;;;5.17;2.63;;;;;;;-143.84;39.87;45066.22;4970132;28;20452;-53
2023/06/01 03:11:52;;;;;;;3.73;2.83;;;;;;;-143.84;39.74;45050.97;4970228;28;20460;-53
2023/06/01 03:14:19;;;;;;;5.20;3.00;;;;;;;-143.84;39.70;45026.22;4970293;28;20998;-53
2023/06/01 03:16:47;;;;;;;7.53;2.37;;;;;;;-143.84;39.89;45052.88;4970261;28;20452;-53
2023/06/01 03:19:14;;;;;;;5.17;2.93;;;;;;;-143.84;39.71;45047.16;4970153;28;21008;-53
2023/06/01 03:21:41;;;;;;;4.47;3.10;;;;;;;-143.84;39.28;45024.31;4970214;28;20835;-53
2023/06/01 03:24:09;;;;;;;2.73;2.30;;;;;;;-143.84;39.16;45049.06;4970442;28;20459;-53
2023/06/01 03:26:36;;;;;;;8.20;2.77;;;;;;;-143.84;39.08;45043.34;4970141;28;20441;-53
2023/06/01 03:29:05;;;;;;;3.23;2.27;;;;;;;-143.84;38.39;45031.94;4970277;28;20452;-53
2023/06/01 03:31:34;;;;;;;5.10;2.63;;;;;;;-143.84;37.84;45026.22;4970114;28;20462;-53
2023/06/01 03:34:01;;;;;;;3.13;2.80;;;;;;;-143.84;37.00;45022.41;4970139;28;20971;-53
2023/06/01 03:36:28;;;;;;;2.73;2.50;;;;;;;-143.84;35.90;45028.13;4970120;28;20464;-53
2023/06/01 03:38:55;;;;;;;3.07;2.77;;;;;;;-143.84;34.86;45001.47;4970156;28;20941;-53
2023/06/01 03:41:23;;;;;;;4.43;2.83;;;;;;;-143.84;34.34;44999.56;4969973;28;20446;-53
2023/06/01 03:43:50;;;;;;;6.50;3.07;;;;;;;-143.84;34.04;45003.38;4970148;28;20468;-53
2023/06/01 03:46:18;;;;;;;2.60;2.20;;;;;;;-143.84;33.53;44988.13;4969691;28;20454;-53
2023/06/01 03:48:45;;;;;;;3.10;2.80;;;;;;;-143.84;33.04;44984.31;4969893;28;20451;-53
2023/06/01 03:51:12;;;;;;;11.67;3.33;;;;;;;-143.84;32.71;44984.31;4970082;28;20443;-53
2023/06/01 03:53:39;;;;;;;3.30;2.70;;;;;;;-143.84;32.60;44999.56;4972549;28;20546;-53
2023/06/01 03:56:07;;;;;;;8.47;3.10;;;;;;;-143.84;32.26;44991.94;4977206;28;20510;-53
2023/06/01 03:58:34;;;;;;;3.33;2.40;;;;;;;-143.84;32.14;44972.91;4992697;28;21145;-54
2023/06/01 04:01:03;;;;;;;2.87;2.63;;;;;;;-143.84;31.58;44965.28;4992914;28;20501;-53
2023/06/01 04:03:32;;;;;;;2.90;2.70;;;;;;;-143.84;31.57;44984.31;4992551;28;20452;-53
2023/06/01 04:06:01;;;;;;;3.83;2.43;;;;;;;-143.84;31.18;44976.72;5009234;28;20487;-54
2023/06/01 04:08:29;;;;;;;4.50;3.17;;;;;;;-143.84;30.81;44984.31;5012336;28;20459;-54
2023/06/01 04:10:56;;;;;;;4.97;2.50;;;;;;;-143.84;30.50;44969.09;5012353;28;21370;-53
2023/06/01 04:13:23;;;;;;;7.17;2.50;;;;;;;-143.84;30.52;44980.53;5012182;28;21041;-53
2023/06/01 04:15:50;;;;;;;6.77;2.70;;;;;;;-143.84;30.84;44984.31;5012282;28;21083;-54
2023/06/01 04:18:17;;;;;;;5.73;3.03;;;;;;;-143.84;30.73;44921.50;5012473;28;21005;-53
2023/06/01 04:20:48;;;;;;;14.30;3.30;;;;;;;-143.84;30.24;44971.00;5012222;28;20444;-54
2023/06/01 04:23:16;;;;;;;4.83;3.03;;;;;;;-143.84;30.20;44967.19;5011966;28;20535;-53
2023/06/01 04:25:43;;;;;;;3.93;2.63;;;;;;;-143.84;30.24;44963.38;5011822;28;20451;-54
2023/06/01 04:28:11;;;;;;;3.30;3.00;;;;;;;-143.84;30.11;44969.09;5011775;28;20459;-54
2023/06/01 04:30:38;;;;;;;2.70;2.30;;;;;;;-143.84;29.87;44972.91;5011924;28;20502;-54
2023/06/01 04:33:05;;;;;;;3.10;2.70;;;;;;;-143.84;29.78;44934.81;5011544;28;20540;-53
2023/06/01 04:35:32;;;;;;;5.10;2.90;;;;;;;-143.84;29.85;44911.97;5011624;28;21316;-54
2023/06/01 04:38:02;;;;;;;7.10;3.10;;;;;;;-143.84;29.95;44946.25;5011741;28;20953;-54
2023/06/01 04:40:29;;;;;;;6.13;2.67;;;;;;;-143.84;30.05;44957.66;5011488;28;20510;-53
2023/06/01 04:42:56;;;;;;;4.83;2.90;;;;;;;-143.84;29.80;44932.91;5011492;28;21107;-53
2023/06/01 04:45:25;;;;;;;5.57;2.90;;;;;;;-143.84;29.96;44948.16;5011413;28;20960;-53
2023/06/01 04:47:52;;;;;;;4.47;2.57;;;;;;;-143.84;29.78;44915.78;5011360;28;20462;-54
2023/06/01 04:50:19;;;;;;;3.00;2.80;;;;;;;-143.84;29.86;44932.91;5011341;28;20486;-54
2023/06/01 04:52:48;;;;;;;5.93;2.70;;;;;;;-143.84;30.00;44934.81;5011178;28;20440;-54
2023/06/01 04:55:16;;;;;;;3.03;2.73;;;;;;;-143.84;29.92;44932.91;5011376;28;20447;-54
2023/06/01 04:57:44;;;;;;;6.67;3.00;;;;;;;-143.84;29.54;44936.72;5011138;28;20896;-54
2023/06/01 05:00:13;;;;;;;3.30;3.00;;;;;;;-143.84;30.13;44955.75;5011499;28;20515;-55
2023/06/01 05:02:42;;;;;;;17.43;4.30;;;;;;;-143.84;29.92;44931.00;5011119;28;20443;-55
2023/06/01 05:05:09;;;;;;;31.67;22.67;;;;;;;-143.84;30.24;44931.00;5010255;28;20492;-53
2023/06/01 05:07:38;;;;;;;83.63;52.80;;;;;;;-143.84;29.73;44892.94;5010862;28;20443;-53
2023/06/01 05:10:07;;;;;;;7.83;4.77;;;;;;;-143.84;29.61;44900.53;5011128;28;20523;-53
2023/06/01 05:12:36;;;;;;;6.77;2.83;;;;;;;-143.84;29.60;44919.59;5010879;28;20448;-53
2023/06/01 05:15:05;;;;;;;6.10;2.67;;;;;;;-143.84;29.63;44894.84;5011023;28;20526;-53
2023/06/01 05:17:32;;;;;;;3.27;2.90;;;;;;;-143.84;29.44;44892.94;5010643;28;20856;-53
2023/06/01 05:19:59;;;;;;;7.40;2.90;;;;;;;-143.84;29.52;44891.03;5010578;28;20494;-53
2023/06/01 05:22:27;;;;;;;3.40;3.10;;;;;;;-143.84;29.67;44910.06;5010477;28;20463;-53
2023/06/01 05:24:55;;;;;;;12.87;3.17;;;;;;;-143.84;29.78;44875.78;5010651;28;20962;-53
2023/06/01 05:27:22;;;;;;;12.10;3.43;;;;;;;-143.84;29.22;44862.47;5010905;28;20535;-53
2023/06/01 05:29:51;;;;;;;4.67;4.10;;;;;;;-143.84;28.69;44883.41;5010830;28;21307;-53
2023/06/01 05:32:18;;;;;;;4.87;3.70;;;;;;;-143.84;29.14;44885.31;5010511;28;20459;-53
2023/06/01 05:34:45;;;;;;;3.43;3.10;;;;;;;-143.84;29.43;44873.88;5010494;28;20511;-53
2023/06/01 05:37:12;;;;;;;5.20;3.70;;;;;;;-143.84;29.52;44868.19;5010338;28;20455;-53
2023/06/01 05:39:39;;;;;;;3.47;3.17;;;;;;;-143.84;29.20;44883.41;5010202;28;20440;-53
2023/06/01 05:42:07;;;;;;;4.97;3.93;;;;;;;-143.84;29.13;44881.50;5010783;28;20444;-53
2023/06/01 05:44:35;;;;;;;9.93;3.43;;;;;;;-143.84;29.38;44883.41;5010494;28;20483;-53
2023/06/01 05:47:03;;;;;;;4.30;3.53;;;;;;;-143.84;29.36;44851.03;5010613;28;20514;-53
2023/06/01 05:49:31;;;;;;;5.63;3.73;;;;;;;-143.84;28.67;44870.09;5010320;28;20448;-53
2023/06/01 05:51:58;;;;;;;6.87;3.37;;;;;;;-143.84;28.25;44856.75;5009943;28;20444;-53
2023/06/01 05:54:25;;;;;;;4.33;3.93;;;;;;;-143.84;28.34;44843.44;5009825;28;20472;-53
2023/06/01 05:56:52;;;;;;;8.60;3.20;;;;;;;-143.84;28.18;44826.28;5009547;28;20444;-53
2023/06/01 05:59:20;;;;;;;4.23;3.33;;;;;;;-143.84;27.91;44879.59;5009969;28;20440;-53
2023/06/01 06:01:47;;;;;;;7.67;4.00;;;;;;;-143.84;28.39;44864.38;5009852;28;20479;-53
2023/06/01 06:04:16;;;;;;;4.77;3.73;;;;;;;-143.84;28.16;44835.81;5009555;28;20524;-53
2023/06/01 06:06:43;;;;;;;6.60;3.20;;;;;;;-143.84;27.79;44868.19;5009942;28;20512;-53
2023/06/01 06:09:13;;;;;;;3.00;2.80;;;;;;;-143.84;28.42;44852.94;5010036;28;20963;-53
2023/06/01 06:14:55;;;;;;;3.00;2.80;;;;;;;-143.84;27.87;44852.94;5009606;28;20533;-52
2023/06/01 06:17:25;;;;;;;10.07;6.50;;;;;;;-143.84;27.39;44862.47;4996732;28;20448;-53
2023/06/01 06:19:53;;;;;;;80.73;61.40;;;;;;;-143.84;27.69;44851.03;5009569;28;20444;-53
2023/06/01 06:22:20;;;;;;;77.67;53.03;;;;;;;-143.84;27.68;44824.38;5009601;28;20494;-53
2023/06/01 06:24:49;;;;;;;8.37;3.20;;;;;;;-143.84;27.48;44803.44;5009769;28;20436;-54
2023/06/01 06:27:16;;;;;;;9.97;3.37;;;;;;;-143.84;27.29;44830.09;5009626;28;20451;-54
2023/06/01 06:29:43;;;;;;;6.30;2.97;;;;;;;-143.84;27.61;44841.53;5009534;28;20513;-54
2023/06/01 06:32:10;;;;;;;11.50;3.00;;;;;;;-143.84;27.81;44828.19;5009511;28;20440;-54
2023/06/01 06:34:37;;;;;;;8.33;2.90;;;;;;;-143.84;27.52;44828.19;5009305;28;20484;-54
2023/06/01 06:37:07;;;;;;;10.00;5.10;;;;;;;-143.84;27.59;44839.63;5009244;28;20807;-54
2023/06/01 06:39:36;;;;;;;14.93;5.30;;;;;;;-143.84;28.19;44877.69;5009114;28;20444;-53
2023/06/01 06:42:03;;;;;;;18.17;6.80;;;;;;;-143.84;29.30;44852.94;5009094;28;20927;-53
2023/06/01 06:44:30;;;;;;;11.93;6.67;;;;;;;-143.84;29.22;44847.22;5009401;28;21009;-54
2023/06/01 06:47:00;;;;;;;17.17;6.33;;;;;;;-143.84;29.58;44864.38;5009317;28;20448;-54
2023/06/01 06:49:27;;;;;;;17.10;8.03;;;;;;;-143.84;30.64;44885.31;5009340;28;20448;-53
2023/06/01 06:51:55;;;;;;;21.10;6.50;;;;;;;-143.84;29.97;44881.50;5009491;28;20446;-53
2023/06/01 06:54:24;;;;;;;27.03;10.40;;;;;;;-143.84;32.69;44879.59;5009424;28;21387;-54
2023/06/01 06:56:51;;;;;;;17.90;7.50;;;;;;;-143.84;30.50;44881.50;5009176;28;20452;-53
2023/06/01 06:59:18;;;;;;;23.20;7.80;;;;;;;-143.84;31.22;44873.88;5009635;28;20534;-53
2023/06/01 07:01:45;;;;;;;15.23;6.40;;;;;;;-143.84;32.01;44866.28;5009342;28;20436;-54
2023/06/01 07:04:12;;;;;;;17.90;6.97;;;;;;;-143.84;32.83;44879.59;5008970;28;21148;-54
2023/06/01 07:06:39;;;;;;;20.57;9.03;;;;;;;-143.84;32.38;44847.22;5009274;28;20797;-53
2023/06/01 07:09:07;;;;;;;22.57;8.37;;;;;;;-143.84;32.44;44881.50;5009129;28;20432;-53
2023/06/01 07:11:36;;;;;;;22.23;9.80;;;;;;;-143.84;32.31;44894.84;5009673;28;20518;-53
2023/06/01 07:14:03;;;;;;;51.60;27.87;;;;;;;-143.84;33.63;44881.50;5008971;28;20882;-52
2023/06/01 07:16:30;;;;;;;27.00;12.60;;;;;;;-143.84;34.02;44931.00;5009357;28;20444;-53
2023/06/01 07:18:57;;;;;;;30.97;10.70;;;;;;;-143.84;33.80;44917.69;5008793;28;20451;-53
2023/06/01 07:21:24;;;;;;;17.57;9.37;;;;;;;-143.84;34.33;44908.16;5008496;28;20534;-54
2023/06/01 07:23:51;;;;;;;12.50;9.30;;;;;;;-143.84;34.11;44877.69;5008680;28;20456;-53
2023/06/01 07:26:19;;;;;;;17.17;12.97;;;;;;;-143.84;34.36;44887.22;5008229;28;20503;-54
2023/06/01 07:28:52;;;;;;;23.53;11.93;;;;;;;-143.84;35.00;44877.69;5011790;28;20531;-53
2023/06/01 07:31:20;;;;;;;14.73;8.00;;;;;;;-143.84;34.24;44877.69;5012300;28;20451;-54
2023/06/01 07:33:47;;;;;;;29.50;11.00;;;;;;;-143.84;34.84;44908.16;5012576;28;20893;-53
2023/06/01 07:36:15;;;;;;;8.20;4.80;;;;;;;-143.84;32.28;44875.78;5012638;28;20440;-53
2023/06/01 07:38:42;;;;;;;26.40;10.87;;;;;;;-143.84;34.02;44887.22;5012525;28;20523;-53
2023/06/01 07:41:11;;;;;;;13.23;10.20;;;;;;;-143.84;34.51;44862.47;5012655;28;20483;-54
2023/06/01 07:43:38;;;;;;;15.67;9.10;;;;;;;-143.84;33.37;44868.19;5012590;28;20445;-54
2023/06/01 07:46:06;;;;;;;18.90;8.63;;;;;;;-143.84;33.30;44891.03;5012462;28;20812;-53
2023/06/01 07:48:36;;;;;;;10.70;5.17;;;;;;;-143.84;31.89;44868.19;5012535;28;20510;-54
2023/06/01 07:51:04;;;;;;;9.90;4.70;;;;;;;-143.84;31.01;44868.19;5012580;28;20444;-54
2023/06/01 07:53:32;;;;;;;15.53;5.47;;;;;;;-143.84;31.79;44858.66;5012832;28;20452;-53
2023/06/01 07:56:00;;;;;;;10.03;5.37;;;;;;;-143.84;33.48;44868.19;5012643;28;20855;-54
2023/06/01 07:58:27;;;;;;;10.13;4.40;;;;;;;-143.84;31.68;44873.88;5012489;28;20518;-53
2023/06/01 08:00:54;;;;;;;5.63;4.23;;;;;;;-143.84;30.62;44881.50;5012233;28;20454;-53
2023/06/01 08:03:25;;;;;;;10.30;3.77;;;;;;;-143.84;30.31;44866.28;5012289;28;20443;-54
2023/06/01 08:05:57;;;;;;;6.60;4.67;;;;;;;-143.84;30.81;44881.50;5012200;28;20506;-54
2023/06/01 08:08:24;;;;;;;7.53;4.20;;;;;;;-143.84;31.12;44891.03;5012064;28;20447;-53
2023/06/01 08:10:51;;;;;;;7.40;4.80;;;;;;;-143.84;31.55;44902.44;5012105;28;20439;-53
2023/06/01 08:13:19;;;;;;;12.20;4.70;;;;;;;-143.84;32.59;44860.56;5012222;28;20459;-53
2023/06/01 08:15:48;;;;;;;7.70;4.60;;;;;;;-143.84;31.21;44911.97;5012317;28;20597;-54
2023/06/01 08:18:15;;;;;;;6.13;4.83;;;;;;;-143.84;30.64;44906.25;5011903;28;20443;-53
2023/06/01 08:20:44;;;;;;;5.57;4.20;;;;;;;-143.84;30.56;44910.06;5011937;28;21008;-53
2023/06/01 08:23:11;;;;;;;6.83;4.57;;;;;;;-143.84;30.29;44911.97;5011774;28;20853;-54
2023/06/01 08:25:38;;;;;;;6.40;3.40;;;;;;;-143.84;30.61;44896.75;5008031;28;20439;-53
2023/06/01 08:28:05;;;;;;;7.93;3.83;;;;;;;-143.84;31.27;44904.34;4992232;28;20486;-54
2023/06/01 08:30:32;;;;;;;10.30;4.47;;;;;;;-143.84;30.95;44887.22;4991979;28;20488;-53
2023/06/01 08:33:02;;;;;;;8.30;4.73;;;;;;;-143.84;31.80;44883.41;4992337;28;20520;-52
2023/06/01 08:35:30;;;;;;;19.13;14.83;;;;;;;-143.84;30.65;44889.13;4992199;28;21007;-53
2023/06/01 08:37:59;;;;;;;32.03;12.57;;;;;;;-143.84;28.10;44915.78;4992093;28;20540;-53
2023/06/01 08:40:27;;;;;;;17.63;12.93;;;;;;;-143.84;27.82;44887.22;4991103;28;20449;-53
2023/06/01 08:42:58;;;;;;;29.90;17.13;;;;;;;-143.84;27.98;44900.53;4992039;28;20502;-54
2023/06/01 08:45:26;;;;;;;16.30;10.60;;;;;;;-143.84;29.24;44919.59;4992084;28;20454;-54
2023/06/01 08:47:54;;;;;;;69.07;39.57;;;;;;;-143.84;28.67;44904.34;4991927;28;20495;-54
2023/06/01 08:50:22;;;;;;;70.57;35.90;;;;;;;-143.84;30.24;44988.13;4991842;28;20441;-54
2023/06/01 08:52:54;;;;;;;85.80;38.53;;;;;;;-143.84;33.41;44950.06;4991920;28;20518;-54
2023/06/01 08:55:23;;;;;;;52.93;27.87;;;;;;;-143.84;35.16;44934.81;4991551;28;20993;-54
2023/06/01 08:57:50;;;;;;;44.57;23.20;;;;;;;-143.84;35.19;44948.16;4991725;28;20509;-54
2023/06/01 09:00:18;;;;;;;22.33;10.40;;;;;;;-143.84;36.31;44965.28;4991744;28;20478;-53
2023/06/01 09:02:46;;;;;;;51.40;29.63;;;;;;;-143.84;36.34;44942.44;4991640;28;20444;-54
2023/06/01 09:05:14;;;;;;;5.03;4.53;;;;;;;-143.84;37.22;44957.66;4991414;28;20469;-53
2023/06/01 09:07:41;;;;;;;4.60;3.70;;;;;;;-143.84;37.10;44972.91;4991427;28;20828;-53
2023/06/01 09:10:09;;;;;;;11.17;5.23;;;;;;;-143.84;37.05;44955.75;4991488;28;20449;-53
2023/06/01 09:12:40;;;;;;;14.53;5.53;;;;;;;-143.84;36.56;44959.56;4991123;28;20449;-54
2023/06/01 09:15:11;;;;;;;53.07;30.63;;;;;;;-143.84;36.54;44969.09;4991410;28;21001;-53
2023/06/01 09:17:38;;;;;;;37.80;19.57;;;;;;;-143.84;36.27;44995.75;4992305;28;20437;-58
2023/06/01 09:20:07;;;;;;;26.90;15.00;;;;;;;-143.84;37.67;44971.00;4992257;28;20453;-59
2023/06/01 09:22:41;;;;;;;29.33;13.67;;;;;;;-143.84;35.64;44972.91;4991864;28;20483;-58
2023/06/01 09:25:09;;;;;;;9.93;6.40;;;;;;;-143.84;36.75;44951.97;4992056;28;21001;-59
2023/06/01 09:27:45;;;;;;;9.30;4.30;;;;;;;-143.84;38.10;44980.53;4991829;28;20449;-58
2023/06/01 09:30:13;;;;;;;9.90;5.20;;;;;;;-143.84;38.95;44967.19;4991683;28;20453;-59
2023/06/01 09:32:41;;;;;;;6.80;3.87;;;;;;;-143.84;35.37;44929.09;4991849;28;20433;-58
2023/06/01 09:35:09;;;;;;;9.63;3.33;;;;;;;-143.84;36.30;44942.44;4991928;28;20492;-58
2023/06/01 09:37:38;;;;;;;6.40;3.90;;;;;;;-143.84;36.25;44991.94;4991633;28;20512;-58
2023/06/01 09:40:18;;;;;;;45.13;22.00;;;;;;;-143.84;37.75;44942.44;4991601;28;20522;-58
2023/06/01 09:42:49;;;;;;;8.33;4.43;;;;;;;-143.84;35.88;44959.56;4991589;28;20476;-58
2023/06/01 09:45:19;;;;;;;82.67;41.40;;;;;;;-143.84;34.36;44961.47;4991415;28;20472;-58
2023/06/01 09:47:46;;;;;;;76.90;35.40;;;;;;;-143.84;35.36;44974.81;4991393;28;20456;-58
2023/06/01 09:50:33;;;;;;;31.20;15.87;;;;;;;-143.84;35.25;44957.66;4991083;28;20863;-58
2023/06/01 09:53:01;;;;;;;6.23;4.37;;;;;;;-143.84;34.44;44974.81;4991810;28;20462;-59
2023/06/01 09:55:28;;;;;;;14.87;4.30;;;;;;;-143.84;34.43;44963.38;4991508;28;20481;-58
2023/06/01 09:58:18;;;;;;;4.63;3.33;;;;;;;-143.84;35.48;44971.00;4991392;28;20506;-58
2023/06/01 10:00:47;;;;;;;10.67;4.20;;;;;;;-143.84;34.96;44957.66;4991433;28;20441;-58
2023/06/01 10:03:15;;;;;;;7.20;4.50;;;;;;;-143.84;35.79;44946.25;4991065;28;20563;-58
2023/06/01 10:05:43;;;;;;;6.57;3.77;;;;;;;-143.84;35.66;44959.56;4991022;28;20488;-58
2023/06/01 10:08:12;;;;;;;11.10;5.00;;;;;;;-143.84;36.56;44980.53;4991169;28;20441;-59
2023/06/01 10:10:40;;;;;;;28.63;4.27;;;;;;;-143.84;35.86;44969.09;4991134;28;20461;-58
2023/06/01 10:13:08;;;;;;;4.13;3.73;;;;;;;-143.84;35.38;44976.72;4990915;28;20780;-58
2023/06/01 10:15:36;;;;;;;5.83;3.80;;;;;;;-143.84;35.11;44950.06;4991401;28;20538;-58
2023/06/01 10:18:03;;;;;;;6.10;3.87;;;;;;;-143.84;34.79;44976.72;4991189;28;20919;-58
2023/06/01 10:20:33;;;;;;;17.50;5.47;;;;;;;-143.84;36.82;44976.72;4991172;28;20954;-58
2023/06/01 10:23:01;;;;;;;5.67;4.23;;;;;;;-143.84;35.99;44978.63;4990802;28;20464;-59
2023/06/01 10:25:32;;;;;;;5.80;3.63;;;;;;;-143.84;33.51;44976.72;4990698;28;20447;-59
2023/06/01 10:28:04;;;;;;;7.50;4.03;;;;;;;-143.84;33.99;44967.19;4991011;28;20514;-59
2023/06/01 10:30:32;;;;;;;5.37;3.87;;;;;;;-143.84;35.73;44950.06;4991006;28;20441;-59
2023/06/01 10:32:59;;;;;;;7.57;3.93;;;;;;;-143.84;33.20;44950.06;4991028;28;20503;-59
2023/06/01 10:36:03;;;;;;;5.87;3.47;;;;;;;-143.84;30.75;44934.81;4990717;28;20506;-59
2023/06/01 10:38:30;;;;;;;4.30;3.90;;;;;;;-143.84;33.02;44951.97;4990502;28;20447;-58
2023/06/01 10:41:30;;;;;;;4.67;3.07;;;;;;;-143.84;31.34;44938.63;4990491;28;20445;-59
2023/06/01 10:43:57;;;;;;;5.87;3.60;;;;;;;-143.84;30.10;44953.88;4990923;28;20555;-58
2023/06/01 10:46:45;;;;;;;4.00;3.00;;;;;;;-143.84;30.98;44931.00;4990847;28;20503;-59
2023/06/01 10:49:13;;;;;;;6.70;4.03;;;;;;;-143.84;30.97;44931.00;4991016;28;20453;-59
2023/06/01 10:51:40;;;;;;;7.03;4.37;;;;;;;-143.84;31.09;44944.34;4990555;28;20441;-59
2023/06/01 10:54:29;;;;;;;4.70;3.53;;;;;;;-143.84;30.10;44931.00;4990571;28;20452;-58
2023/06/01 10:57:24;;;;;;;10.13;3.23;;;;;;;-143.84;31.42;44911.97;4985196;28;20458;-58
2023/06/01 11:00:10;;;;;;;3.70;3.40;;;;;;;-143.84;30.62;44923.41;4990554;28;20509;-59
2023/06/01 11:02:44;;;;;;;7.07;3.60;;;;;;;-143.84;30.82;44913.88;4977452;28;21078;-59
2023/06/01 11:05:36;;;;;;;5.43;3.17;;;;;;;-143.84;30.86;44923.41;4990276;28;21043;-59
2023/06/01 11:08:04;;;;;;;3.83;3.53;;;;;;;-143.84;30.63;44944.34;4990603;28;20981;-58
2023/06/01 11:10:58;;;;;;;6.60;4.00;;;;;;;-143.84;33.58;44915.78;4990360;28;20436;-59
2023/06/01 11:13:27;;;;;;;3.80;3.50;;;;;;;-143.84;32.55;44929.09;4990476;28;20453;-58
2023/06/01 11:16:31;;;;;;;14.00;4.17;;;;;;;-143.84;33.39;44927.19;4990205;28;20490;-58
2023/06/01 11:19:02;;;;;;;489.90;107.50;;;;;;;-143.84;32.54;44908.16;4988024;28;20463;-58
2023/06/01 11:21:31;;;;;;;5.63;4.00;;;;;;;-143.84;33.74;44911.97;4990377;28;20449;-58
2023/06/01 11:23:59;;;;;;;7.20;3.43;;;;;;;-143.84;32.36;44946.25;4990088;28;20931;-59
2023/06/01 11:26:31;;;;;;;3.30;3.10;;;;;;;-143.84;32.94;44942.44;4990302;28;20548;-59